Terminal Aerodrome Forecast
Issued by NWS

Home | Current Version | Previous Version | Text Only | Print | Product List | Glossary On
Versions: 1 2 3 4 5 6 7 8 9 10 11 12 13 14 15
000
FTUS43 KBIS 282300
TAFMOT
TAF
KMOT 282336Z 2900/2924 20007KT P6SM SCT150
     FM290800 30010KT P6SM BKN080
     FM291300 33013KT P6SM VCTS SCT015CB BKN080
     FM291900 36015KT P6SM BKN080=

USA.gov is the U.S. government's official web portal to all federal, state and local government web resources and services.